Time;durP1;ratioP1;P1;durP2;ratioP2;P2;SDS_P1;SDS_P2;PMS_P1;PMS_P2;Temp;Humidity;BMP_temperature;BMP_pressure;BME280_temperature;BME280_humidity;BME280_pressure;Samples;Min_cycle;Max_cycle;Signal;HPM_P1;HPM_P2
2023/06/25 00:00:18;;;;;;;9.60;5.30;;;;;;;;;;7387518;19;20002;-67
2023/06/25 00:02:44;;;;;;;7.72;5.63;;;;;;;;;;7365353;19;20384;-67
2023/06/25 00:05:09;;;;;;;10.88;5.63;;;;;;;;;;7365757;19;20049;-67
2023/06/25 00:07:35;;;;;;;8.75;5.63;;;;;;;;;;7362007;19;20368;-67
2023/06/25 00:10:00;;;;;;;11.35;6.18;;;;;;;;;;7364116;19;20426;-67
2023/06/25 00:12:26;;;;;;;10.93;5.93;;;;;;;;;;7387539;19;20472;-67
2023/06/25 00:14:51;;;;;;;8.43;5.05;;;;;;;;;;7365666;19;20011;-67
2023/06/25 00:17:21;;;;;;;11.85;5.90;;;;;;;;;;7365524;19;20010;-67
2023/06/25 00:19:46;;;;;;;8.35;5.53;;;;;;;;;;7365359;19;20015;-67
2023/06/25 00:22:12;;;;;;;9.43;5.97;;;;;;;;;;7370173;19;19996;-67
2023/06/25 00:24:38;;;;;;;13.02;6.00;;;;;;;;;;7395118;19;20014;-67
2023/06/25 00:27:04;;;;;;;8.98;5.40;;;;;;;;;;7372874;19;20078;-67
2023/06/25 00:29:29;;;;;;;8.98;5.50;;;;;;;;;;7370878;19;20011;-67
2023/06/25 00:31:55;;;;;;;8.98;6.03;;;;;;;;;;7374043;19;20539;-67
2023/06/25 00:34:20;;;;;;;8.98;5.85;;;;;;;;;;7374028;19;20020;-67
2023/06/25 00:36:45;;;;;;;8.98;6.20;;;;;;;;;;7395418;19;20051;-67
2023/06/25 00:39:11;;;;;;;10.20;6.20;;;;;;;;;;7373019;19;20038;-67
2023/06/25 00:41:39;;;;;;;10.68;6.10;;;;;;;;;;7373840;19;20468;-66
2023/06/25 00:44:06;;;;;;;8.57;5.35;;;;;;;;;;7374165;19;20106;-67
2023/06/25 00:46:31;;;;;;;11.32;6.30;;;;;;;;;;7374544;19;20048;-66
2023/06/25 00:48:57;;;;;;;8.50;5.82;;;;;;;;;;7373026;19;20385;-67
2023/06/25 00:51:26;;;;;;;12.75;6.47;;;;;;;;;;7395740;19;20017;-67
2023/06/25 00:53:52;;;;;;;9.50;6.15;;;;;;;;;;7373284;19;20006;-67
2023/06/25 00:56:27;;;;;;;8.70;6.40;;;;;;;;;;7373877;19;20007;-66
2023/06/25 00:58:54;;;;;;;10.27;6.15;;;;;;;;;;7373100;19;20342;-67
2023/06/25 01:01:26;;;;;;;10.35;6.22;;;;;;;;;;7373757;19;20014;-67
2023/06/25 01:03:56;;;;;;;10.32;6.47;;;;;;;;;;7387860;19;20106;-66
2023/06/25 01:06:29;;;;;;;10.27;5.90;;;;;;;;;;7394787;19;20047;-66
2023/06/25 01:08:59;;;;;;;9.65;6.22;;;;;;;;;;7370981;19;20006;-66
2023/06/25 01:11:24;;;;;;;9.23;6.47;;;;;;;;;;7373252;19;20011;-66
2023/06/25 01:13:50;;;;;;;9.02;6.50;;;;;;;;;;7369138;19;20003;-66
2023/06/25 01:16:15;;;;;;;9.43;6.60;;;;;;;;;;7371635;19;20029;-67
2023/06/25 01:18:40;;;;;;;8.80;6.20;;;;;;;;;;7389578;19;20011;-66
2023/06/25 01:21:09;;;;;;;8.50;5.93;;;;;;;;;;7370215;19;20046;-66
2023/06/25 01:23:36;;;;;;;12.23;6.30;;;;;;;;;;7370346;19;20646;-66
2023/06/25 01:26:01;;;;;;;12.95;6.00;;;;;;;;;;7370891;19;20066;-67
2023/06/25 01:28:27;;;;;;;9.73;6.72;;;;;;;;;;7368253;19;20014;-66
2023/06/25 01:30:52;;;;;;;9.93;5.93;;;;;;;;;;7376785;19;20006;-68
2023/06/25 01:33:25;;;;;;;9.55;6.10;;;;;;;;;;7386211;19;20011;-68
2023/06/25 01:35:51;;;;;;;9.80;5.95;;;;;;;;;;7371907;19;20345;-66
2023/06/25 01:38:16;;;;;;;8.45;5.75;;;;;;;;;;7369939;19;20011;-66
2023/06/25 01:40:41;;;;;;;9.98;6.75;;;;;;;;;;7372255;19;20571;-66
2023/06/25 01:43:07;;;;;;;10.63;6.03;;;;;;;;;;7373647;19;20029;-67
2023/06/25 01:45:32;;;;;;;9.07;6.20;;;;;;;;;;7394853;19;20011;-65
2023/06/25 01:47:58;;;;;;;9.85;6.15;;;;;;;;;;7372066;19;20010;-66
2023/06/25 01:50:23;;;;;;;11.00;6.68;;;;;;;;;;7372474;19;20027;-67
2023/06/25 01:52:48;;;;;;;7.82;5.85;;;;;;;;;;7373350;19;20473;-67
2023/06/25 01:55:13;;;;;;;9.95;6.18;;;;;;;;;;7372875;19;20010;-67
2023/06/25 01:57:39;;;;;;;10.63;6.32;;;;;;;;;;7391857;19;20027;-68
2023/06/25 02:00:07;;;;;;;11.20;6.20;;;;;;;;;;7370270;19;20017;-67
2023/06/25 02:02:32;;;;;;;10.65;6.05;;;;;;;;;;7370517;19;20468;-67
2023/06/25 02:04:58;;;;;;;10.80;6.07;;;;;;;;;;7371354;19;20007;-67
2023/06/25 02:07:23;;;;;;;10.15;6.03;;;;;;;;;;7371018;19;20049;-68
2023/06/25 02:09:48;;;;;;;9.93;6.10;;;;;;;;;;7391223;19;20492;-67
2023/06/25 02:12:14;;;;;;;12.07;6.00;;;;;;;;;;7370990;19;20023;-67
2023/06/25 02:14:39;;;;;;;13.02;6.35;;;;;;;;;;7370347;19;20046;-66
2023/06/25 02:17:04;;;;;;;9.32;6.15;;;;;;;;;;7370611;19;20104;-67
2023/06/25 02:19:30;;;;;;;9.60;5.95;;;;;;;;;;7369099;19;20082;-67
2023/06/25 02:21:55;;;;;;;11.18;6.15;;;;;;;;;;7370428;19;20003;-66
2023/06/25 02:24:20;;;;;;;10.05;6.03;;;;;;;;;;7391128;19;20014;-67
2023/06/25 02:26:46;;;;;;;11.18;5.53;;;;;;;;;;7363018;19;20014;-66
2023/06/25 02:29:11;;;;;;;10.38;6.03;;;;;;;;;;7367827;19;20041;-67
2023/06/25 02:31:36;;;;;;;9.52;6.22;;;;;;;;;;7369251;19;20019;-67
2023/06/25 02:34:02;;;;;;;10.15;6.20;;;;;;;;;;7370085;19;20384;-67
2023/06/25 02:36:27;;;;;;;10.70;6.15;;;;;;;;;;7391814;19;19999;-67
2023/06/25 02:38:53;;;;;;;7.90;5.07;;;;;;;;;;7369745;19;20093;-67
2023/06/25 02:41:18;;;;;;;9.07;5.95;;;;;;;;;;7371067;19;20011;-67
2023/06/25 02:43:43;;;;;;;8.55;6.03;;;;;;;;;;7370949;19;20019;-67
2023/06/25 02:46:09;;;;;;;9.52;5.70;;;;;;;;;;7367280;19;20010;-67
2023/06/25 02:48:36;;;;;;;10.00;5.57;;;;;;;;;;7390188;19;20003;-67
2023/06/25 02:51:02;;;;;;;9.50;5.75;;;;;;;;;;7369589;19;20013;-67
2023/06/25 02:53:27;;;;;;;9.40;5.93;;;;;;;;;;7371694;19;20454;-67
2023/06/25 02:55:52;;;;;;;10.20;6.43;;;;;;;;;;7371062;19;20101;-67
2023/06/25 02:58:17;;;;;;;8.40;5.75;;;;;;;;;;7369524;19;20034;-67
2023/06/25 03:00:43;;;;;;;8.50;5.65;;;;;;;;;;7390614;19;20010;-67
2023/06/25 03:03:08;;;;;;;9.77;5.65;;;;;;;;;;7369034;19;20009;-67
2023/06/25 03:05:33;;;;;;;11.43;5.32;;;;;;;;;;7367963;19;20022;-67
2023/06/25 03:07:59;;;;;;;8.95;5.32;;;;;;;;;;7368339;19;20014;-66
2023/06/25 03:10:27;;;;;;;9.77;5.55;;;;;;;;;;7366632;19;20050;-67
2023/06/25 03:12:52;;;;;;;8.65;5.43;;;;;;;;;;7375826;19;20006;-66
2023/06/25 03:15:17;;;;;;;8.52;5.22;;;;;;;;;;7384739;19;20025;-66
2023/06/25 03:17:44;;;;;;;9.40;6.00;;;;;;;;;;7366781;19;20014;-67
2023/06/25 03:20:10;;;;;;;9.27;5.63;;;;;;;;;;7366907;19;20019;-66
2023/06/25 03:22:35;;;;;;;9.35;5.70;;;;;;;;;;7367021;19;20662;-66
2023/06/25 03:25:02;;;;;;;8.60;5.65;;;;;;;;;;7366434;19;20007;-67
2023/06/25 03:27:32;;;;;;;8.52;5.68;;;;;;;;;;7387329;19;20041;-66
2023/06/25 03:29:57;;;;;;;11.20;5.93;;;;;;;;;;7366970;19;19994;-67
2023/06/25 03:32:23;;;;;;;8.93;5.93;;;;;;;;;;7366545;19;20021;-67
2023/06/25 03:34:48;;;;;;;10.05;5.43;;;;;;;;;;7367234;19;20018;-67
2023/06/25 03:37:13;;;;;;;8.70;5.30;;;;;;;;;;7366335;19;20011;-67
2023/06/25 03:39:39;;;;;;;8.25;5.47;;;;;;;;;;7387897;19;20018;-67
2023/06/25 03:42:04;;;;;;;9.30;5.45;;;;;;;;;;7368386;19;20007;-66
2023/06/25 03:44:30;;;;;;;9.23;5.35;;;;;;;;;;7368570;19;20074;-67
2023/06/25 03:46:55;;;;;;;8.57;5.50;;;;;;;;;;7367752;19;20472;-67
2023/06/25 03:49:20;;;;;;;10.55;5.65;;;;;;;;;;7366551;19;20010;-67
2023/06/25 03:51:46;;;;;;;10.75;5.57;;;;;;;;;;7389650;19;20006;-67
2023/06/25 03:54:11;;;;;;;6.88;4.65;;;;;;;;;;7367342;19;20006;-66
2023/06/25 03:56:36;;;;;;;9.20;5.15;;;;;;;;;;7371184;19;20089;-66
2023/06/25 03:59:02;;;;;;;7.20;5.18;;;;;;;;;;7380736;19;20010;-66
2023/06/25 04:01:27;;;;;;;10.18;5.65;;;;;;;;;;7379336;19;20021;-66
2023/06/25 04:03:52;;;;;;;8.73;5.15;;;;;;;;;;7385190;19;20045;-66
2023/06/25 04:06:18;;;;;;;8.80;5.38;;;;;;;;;;7404280;19;20006;-66
2023/06/25 04:08:43;;;;;;;8.13;5.05;;;;;;;;;;7380328;19;20006;-66
2023/06/25 04:11:08;;;;;;;8.98;5.38;;;;;;;;;;7379055;19;20026;-66
2023/06/25 04:13:34;;;;;;;8.38;5.43;;;;;;;;;;7378175;19;20043;-67
2023/06/25 04:15:59;;;;;;;7.50;5.10;;;;;;;;;;7380789;19;20006;-67
2023/06/25 04:18:24;;;;;;;7.63;4.88;;;;;;;;;;7400295;19;20188;-67
2023/06/25 04:20:50;;;;;;;8.70;5.35;;;;;;;;;;7380814;19;20006;-67
2023/06/25 04:23:15;;;;;;;9.23;5.28;;;;;;;;;;7378886;19;20098;-67
2023/06/25 04:25:43;;;;;;;8.85;5.45;;;;;;;;;;7379164;19;20003;-66
2023/06/25 04:28:15;;;;;;;7.82;5.22;;;;;;;;;;7377492;19;20014;-67
2023/06/25 04:30:40;;;;;;;9.48;5.15;;;;;;;;;;7400963;19;20013;-67
2023/06/25 04:33:06;;;;;;;11.55;5.22;;;;;;;;;;7382089;19;20058;-66
2023/06/25 04:35:32;;;;;;;6.78;4.47;;;;;;;;;;7383213;19;20062;-66
2023/06/25 04:37:57;;;;;;;8.20;5.32;;;;;;;;;;7381137;19;20022;-67
2023/06/25 04:40:23;;;;;;;8.73;5.05;;;;;;;;;;7379828;19;20052;-67
2023/06/25 04:42:48;;;;;;;9.80;4.90;;;;;;;;;;7401561;19;20767;-68
2023/06/25 04:45:16;;;;;;;9.75;4.97;;;;;;;;;;7379099;19;20189;-68
2023/06/25 04:47:42;;;;;;;7.07;4.70;;;;;;;;;;7377830;19;20468;-67
2023/06/25 04:50:07;;;;;;;12.63;5.40;;;;;;;;;;7379370;19;20077;-67
2023/06/25 04:52:33;;;;;;;9.75;4.57;;;;;;;;;;7380158;19;20382;-66
2023/06/25 04:54:58;;;;;;;8.90;5.07;;;;;;;;;;7380589;19;20002;-67
2023/06/25 04:57:23;;;;;;;9.48;5.35;;;;;;;;;;7410363;19;20010;-68
2023/06/25 04:59:49;;;;;;;8.80;4.72;;;;;;;;;;7382565;19;20025;-67
2023/06/25 05:02:14;;;;;;;8.90;4.30;;;;;;;;;;7380451;19;20371;-66
2023/06/25 05:04:39;;;;;;;8.40;4.63;;;;;;;;;;7379995;19;20615;-66
2023/06/25 05:07:05;;;;;;;11.10;4.72;;;;;;;;;;7378563;19;20016;-68
2023/06/25 05:09:30;;;;;;;12.43;4.93;;;;;;;;;;7390230;19;20110;-67
2023/06/25 05:11:56;;;;;;;7.72;4.72;;;;;;;;;;7372286;19;20913;-67
2023/06/25 05:14:21;;;;;;;8.43;4.70;;;;;;;;;;7370426;19;20021;-67
2023/06/25 05:16:46;;;;;;;8.43;4.90;;;;;;;;;;7372404;19;20023;-66
2023/06/25 05:19:12;;;;;;;8.18;4.65;;;;;;;;;;7371194;19;20018;-67
2023/06/25 05:21:37;;;;;;;7.53;4.80;;;;;;;;;;7393798;19;20452;-67
2023/06/25 05:24:05;;;;;;;6.85;4.43;;;;;;;;;;7372514;19;20243;-66
2023/06/25 05:26:30;;;;;;;9.07;4.70;;;;;;;;;;7369992;19;20082;-66
2023/06/25 05:28:56;;;;;;;8.13;4.70;;;;;;;;;;7370560;19;20067;-67
2023/06/25 05:31:21;;;;;;;9.38;4.68;;;;;;;;;;7370712;19;20018;-67
2023/06/25 05:33:47;;;;;;;10.07;4.25;;;;;;;;;;7393539;19;20006;-67
2023/06/25 05:36:13;;;;;;;7.47;4.40;;;;;;;;;;7372091;19;20585;-68
2023/06/25 05:38:38;;;;;;;6.35;3.97;;;;;;;;;;7370087;19;20241;-67
2023/06/25 05:41:03;;;;;;;8.02;4.57;;;;;;;;;;7371091;19;20006;-68
2023/06/25 05:43:29;;;;;;;7.97;4.40;;;;;;;;;;7372538;19;20018;-67
2023/06/25 05:45:54;;;;;;;8.05;4.30;;;;;;;;;;7371627;19;19998;-66
2023/06/25 05:48:19;;;;;;;7.22;4.47;;;;;;;;;;7390706;19;20472;-68
2023/06/25 05:50:45;;;;;;;8.15;4.00;;;;;;;;;;7370243;19;20054;-68
2023/06/25 05:53:10;;;;;;;8.90;4.20;;;;;;;;;;7371073;19;20037;-67
2023/06/25 05:55:35;;;;;;;7.05;4.43;;;;;;;;;;7370278;19;20015;-67
2023/06/25 05:58:01;;;;;;;7.75;4.75;;;;;;;;;;7368662;19;20007;-66
2023/06/25 06:00:26;;;;;;;8.35;4.68;;;;;;;;;;7392606;19;20074;-67
2023/06/25 06:02:52;;;;;;;6.78;4.60;;;;;;;;;;7369437;19;20022;-67
2023/06/25 06:05:17;;;;;;;7.88;4.25;;;;;;;;;;7368352;19;20017;-67
2023/06/25 06:07:43;;;;;;;6.20;4.32;;;;;;;;;;7368347;19;20966;-66
2023/06/25 06:10:08;;;;;;;5.88;4.03;;;;;;;;;;7368749;19;20350;-65
2023/06/25 06:12:33;;;;;;;6.63;4.45;;;;;;;;;;7390231;19;20007;-65
2023/06/25 06:14:59;;;;;;;7.15;4.30;;;;;;;;;;7370541;19;20081;-74
2023/06/25 06:17:24;;;;;;;7.43;4.53;;;;;;;;;;7368790;19;20373;-75
2023/06/25 06:19:49;;;;;;;9.18;4.40;;;;;;;;;;7371495;19;20047;-73
2023/06/25 06:22:16;;;;;;;7.60;4.40;;;;;;;;;;7371261;19;20022;-73
2023/06/25 06:24:42;;;;;;;6.57;4.20;;;;;;;;;;7389824;19;20015;-74
2023/06/25 06:27:08;;;;;;;6.95;4.18;;;;;;;;;;7373415;19;20104;-73
2023/06/25 06:29:33;;;;;;;7.13;4.50;;;;;;;;;;7371851;19;20007;-74
2023/06/25 06:31:59;;;;;;;8.93;4.35;;;;;;;;;;7374303;19;20095;-73
2023/06/25 06:34:24;;;;;;;6.38;4.50;;;;;;;;;;7374081;19;20015;-74
2023/06/25 06:36:49;;;;;;;7.35;4.53;;;;;;;;;;7396623;19;20011;-73
2023/06/25 06:39:15;;;;;;;8.98;4.55;;;;;;;;;;7369000;19;20003;-74
2023/06/25 06:41:40;;;;;;;6.47;4.43;;;;;;;;;;7370284;19;20090;-74
2023/06/25 06:44:13;;;;;;;8.02;4.90;;;;;;;;;;7368994;19;20015;-71
2023/06/25 06:46:39;;;;;;;6.90;4.55;;;;;;;;;;7366196;19;20010;-72
2023/06/25 06:49:05;;;;;;;8.63;4.22;;;;;;;;;;7364034;19;20010;-71
2023/06/25 06:51:31;;;;;;;7.03;4.63;;;;;;;;;;7385952;19;20424;-71
2023/06/25 06:53:56;;;;;;;7.18;4.40;;;;;;;;;;7365312;19;20302;-70
2023/06/25 06:56:21;;;;;;;7.07;4.63;;;;;;;;;;7366498;19;20006;-71
2023/06/25 06:58:47;;;;;;;11.35;4.60;;;;;;;;;;7365426;19;20078;-70
2023/06/25 07:01:13;;;;;;;9.00;3.88;;;;;;;;;;7368782;19;20588;-70
2023/06/25 07:03:38;;;;;;;6.07;4.40;;;;;;;;;;7392041;19;20338;-70
2023/06/25 07:06:04;;;;;;;7.00;4.33;;;;;;;;;;7370061;19;20010;-70
2023/06/25 07:08:29;;;;;;;6.90;4.05;;;;;;;;;;7369231;19;20251;-70
2023/06/25 07:10:54;;;;;;;6.65;4.55;;;;;;;;;;7368788;19;20002;-71
2023/06/25 07:13:20;;;;;;;5.78;4.25;;;;;;;;;;7369795;19;20025;-71
2023/06/25 07:15:45;;;;;;;6.97;4.25;;;;;;;;;;7391050;19;20521;-70
2023/06/25 07:18:10;;;;;;;6.47;4.18;;;;;;;;;;7365643;19;20019;-71
2023/06/25 07:20:36;;;;;;;7.25;4.60;;;;;;;;;;7366681;19;20021;-71
2023/06/25 07:23:01;;;;;;;6.35;4.00;;;;;;;;;;7366696;19;20219;-71
2023/06/25 07:25:26;;;;;;;8.25;3.83;;;;;;;;;;7369795;19;20010;-71
2023/06/25 07:27:51;;;;;;;6.75;4.03;;;;;;;;;;7384664;19;20381;-71
2023/06/25 07:30:17;;;;;;;6.53;4.30;;;;;;;;;;7378729;19;20010;-71
2023/06/25 07:32:42;;;;;;;6.03;3.90;;;;;;;;;;7367416;19;20006;-71
2023/06/25 07:35:08;;;;;;;7.07;4.50;;;;;;;;;;7371462;19;20006;-70
2023/06/25 07:37:33;;;;;;;8.25;4.40;;;;;;;;;;7371465;19;19999;-71
2023/06/25 07:39:58;;;;;;;6.83;4.30;;;;;;;;;;7369822;19;20009;-71
2023/06/25 07:42:24;;;;;;;6.47;4.03;;;;;;;;;;7391746;19;20236;-71
2023/06/25 07:44:49;;;;;;;9.50;4.70;;;;;;;;;;7368719;19;20244;-71
2023/06/25 07:47:14;;;;;;;6.47;4.50;;;;;;;;;;7369499;19;20267;-71
2023/06/25 07:49:40;;;;;;;9.63;4.38;;;;;;;;;;7369345;19;20010;-70
2023/06/25 07:52:05;;;;;;;8.57;4.35;;;;;;;;;;7372302;19;20003;-71
2023/06/25 07:54:31;;;;;;;6.15;4.10;;;;;;;;;;7393656;19;19999;-70
2023/06/25 07:56:56;;;;;;;8.43;4.10;;;;;;;;;;7380312;19;20006;-71
2023/06/25 07:59:21;;;;;;;5.87;4.10;;;;;;;;;;7382847;19;20002;-71
2023/06/25 08:01:46;;;;;;;6.50;3.87;;;;;;;;;;7381931;19;20219;-70
2023/06/25 08:04:12;;;;;;;6.67;4.03;;;;;;;;;;7378391;19;20225;-70
2023/06/25 08:06:37;;;;;;;6.50;3.70;;;;;;;;;;7397956;19;20294;-71
2023/06/25 08:09:04;;;;;;;6.23;4.10;;;;;;;;;;7373547;19;20009;-71
2023/06/25 08:11:29;;;;;;;6.70;3.28;;;;;;;;;;7375468;19;20240;-72
2023/06/25 08:13:54;;;;;;;6.63;3.75;;;;;;;;;;7372965;19;20014;-70
2023/06/25 08:16:20;;;;;;;6.40;3.78;;;;;;;;;;7374208;19;20017;-71
2023/06/25 08:18:45;;;;;;;6.35;3.83;;;;;;;;;;7395040;19;20361;-71
2023/06/25 08:21:11;;;;;;;5.95;3.80;;;;;;;;;;7371614;19;20460;-70
2023/06/25 08:23:36;;;;;;;5.88;3.53;;;;;;;;;;7371969;19;20032;-72
2023/06/25 08:26:02;;;;;;;8.30;3.93;;;;;;;;;;7371830;19;20002;-70
2023/06/25 08:28:28;;;;;;;5.22;3.63;;;;;;;;;;7370911;19;20562;-70
2023/06/25 08:30:53;;;;;;;5.97;3.85;;;;;;;;;;7374346;19;20010;-71
2023/06/25 08:33:18;;;;;;;5.75;3.75;;;;;;;;;;7393418;19;19999;-70
2023/06/25 08:35:44;;;;;;;5.47;3.60;;;;;;;;;;7372989;19;20016;-71
2023/06/25 08:38:11;;;;;;;5.35;3.60;;;;;;;;;;7370581;19;20082;-71
2023/06/25 08:40:40;;;;;;;5.93;3.70;;;;;;;;;;7371121;19;20040;-72
2023/06/25 08:43:05;;;;;;;11.48;3.70;;;;;;;;;;7376249;19;20070;-71
2023/06/25 08:45:31;;;;;;;5.60;4.03;;;;;;;;;;7402588;19;20011;-71
2023/06/25 08:48:01;;;;;;;5.63;3.78;;;;;;;;;;7377852;19;20014;-71
2023/06/25 08:50:27;;;;;;;7.80;3.83;;;;;;;;;;7378571;19;20007;-71
2023/06/25 08:52:52;;;;;;;6.05;3.90;;;;;;;;;;7377146;19;20130;-71
2023/06/25 08:55:21;;;;;;;7.30;4.15;;;;;;;;;;7380471;19;20058;-71
2023/06/25 08:57:46;;;;;;;6.32;3.90;;;;;;;;;;7398701;19;20011;-70
2023/06/25 09:00:13;;;;;;;5.20;3.50;;;;;;;;;;7375102;19;20022;-70
2023/06/25 09:02:38;;;;;;;8.48;3.75;;;;;;;;;;7373266;19;20244;-71
2023/06/25 09:05:09;;;;;;;6.47;3.40;;;;;;;;;;7375092;19;20018;-70
2023/06/25 09:07:42;;;;;;;5.50;3.53;;;;;;;;;;7373959;19;20018;-70
2023/06/25 09:10:08;;;;;;;7.60;4.18;;;;;;;;;;7374745;19;20464;-70
2023/06/25 09:12:33;;;;;;;6.53;3.78;;;;;;;;;;7397110;19;20074;-69
2023/06/25 09:14:59;;;;;;;6.00;3.67;;;;;;;;;;7374213;19;20010;-70
2023/06/25 09:17:24;;;;;;;5.80;3.70;;;;;;;;;;7373896;19;20011;-71
2023/06/25 09:19:51;;;;;;;5.72;3.67;;;;;;;;;;7375450;19;19998;-70
2023/06/25 09:22:16;;;;;;;5.85;3.95;;;;;;;;;;7374497;19;20010;-71
2023/06/25 09:24:51;;;;;;;6.78;4.20;;;;;;;;;;7397130;19;20081;-70
2023/06/25 09:27:20;;;;;;;5.57;3.42;;;;;;;;;;7373412;19;20021;-70
2023/06/25 09:29:45;;;;;;;6.63;3.40;;;;;;;;;;7371415;19;20010;-70
2023/06/25 09:32:11;;;;;;;6.03;4.38;;;;;;;;;;7374772;19;20018;-69
2023/06/25 09:34:41;;;;;;;6.25;3.50;;;;;;;;;;7373852;19;20014;-70
2023/06/25 09:37:06;;;;;;;8.27;3.55;;;;;;;;;;7373914;19;20425;-69
2023/06/25 09:39:32;;;;;;;5.45;3.40;;;;;;;;;;7394388;19;20003;-69
2023/06/25 09:42:00;;;;;;;8.32;4.00;;;;;;;;;;7372294;19;20046;-69
2023/06/25 09:44:26;;;;;;;5.68;3.47;;;;;;;;;;7369631;19;20101;-69
2023/06/25 09:46:58;;;;;;;4.65;3.25;;;;;;;;;;7371676;19;20098;-70
2023/06/25 09:49:26;;;;;;;5.57;3.75;;;;;;;;;;7371352;19;20014;-69
2023/06/25 09:52:14;;;;;;;7.63;4.00;;;;;;;;;;7386874;19;20018;-70
2023/06/25 09:54:41;;;;;;;7.47;3.85;;;;;;;;;;7394619;19;20432;-70
2023/06/25 09:57:09;;;;;;;6.30;3.95;;;;;;;;;;7372410;19;20014;-69
2023/06/25 09:59:36;;;;;;;5.60;3.55;;;;;;;;;;7373006;19;20365;-69
2023/06/25 10:02:05;;;;;;;5.75;3.58;;;;;;;;;;7375969;19;20042;-70
2023/06/25 10:04:33;;;;;;;6.28;3.53;;;;;;;;;;7376389;19;20164;-69
2023/06/25 10:06:58;;;;;;;6.18;3.72;;;;;;;;;;7374418;19;20002;-69
2023/06/25 10:09:24;;;;;;;6.35;3.72;;;;;;;;;;7395000;19;20455;-69
2023/06/25 10:11:54;;;;;;;5.25;3.70;;;;;;;;;;7375800;19;20488;-69
2023/06/25 10:14:20;;;;;;;5.85;3.60;;;;;;;;;;7373588;19;20117;-70
2023/06/25 10:16:53;;;;;;;6.32;3.47;;;;;;;;;;7374954;19;20086;-69
2023/06/25 10:19:20;;;;;;;6.15;3.80;;;;;;;;;;7374676;19;20014;-70
2023/06/25 10:21:56;;;;;;;8.65;3.65;;;;;;;;;;7396945;19;20006;-70
2023/06/25 10:24:22;;;;;;;6.97;3.75;;;;;;;;;;7374760;19;20031;-70
2023/06/25 10:26:53;;;;;;;5.80;3.97;;;;;;;;;;7371845;19;20006;-69
2023/06/25 10:29:18;;;;;;;6.60;3.90;;;;;;;;;;7370984;19;20250;-69
2023/06/25 10:31:45;;;;;;;6.20;4.00;;;;;;;;;;7371676;19;20475;-70
2023/06/25 10:34:13;;;;;;;6.35;3.92;;;;;;;;;;7372015;19;20013;-68
2023/06/25 10:36:53;;;;;;;9.00;4.18;;;;;;;;;;7392989;19;20011;-70
2023/06/25 10:39:18;;;;;;;5.57;3.70;;;;;;;;;;7371407;19;20009;-70
2023/06/25 10:41:47;;;;;;;8.68;4.20;;;;;;;;;;7372259;19;20066;-70
2023/06/25 10:44:13;;;;;;;6.20;3.53;;;;;;;;;;7371465;19;20042;-70
2023/06/25 10:46:38;;;;;;;9.07;3.97;;;;;;;;;;7371872;19;20490;-68
2023/06/25 10:49:03;;;;;;;5.88;3.70;;;;;;;;;;7370669;19;20461;-69
2023/06/25 10:51:29;;;;;;;5.80;3.83;;;;;;;;;;7392645;19;20504;-69
2023/06/25 10:53:55;;;;;;;6.03;3.92;;;;;;;;;;7371268;19;20003;-69
2023/06/25 10:56:22;;;;;;;5.55;3.40;;;;;;;;;;7370705;19;20006;-70
2023/06/25 10:58:54;;;;;;;8.43;3.72;;;;;;;;;;7371411;19;20040;-68
2023/06/25 11:01:19;;;;;;;4.95;3.50;;;;;;;;;;7372297;19;20230;-69
2023/06/25 11:03:44;;;;;;;5.47;3.65;;;;;;;;;;7393091;19;20068;-69
2023/06/25 11:06:10;;;;;;;8.43;3.80;;;;;;;;;;7367904;19;20088;-69
2023/06/25 11:08:35;;;;;;;9.25;3.30;;;;;;;;;;7370434;19;20223;-70
2023/06/25 11:11:00;;;;;;;5.55;3.35;;;;;;;;;;7369659;19;20006;-69
2023/06/25 11:13:27;;;;;;;5.55;3.30;;;;;;;;;;7371948;19;20003;-69
2023/06/25 11:15:53;;;;;;;6.15;3.72;;;;;;;;;;7381416;19;20066;-69
2023/06/25 11:18:21;;;;;;;6.85;3.58;;;;;;;;;;7391532;19;20002;-69
2023/06/25 11:20:46;;;;;;;6.43;3.90;;;;;;;;;;7369886;19;20050;-69
2023/06/25 11:23:13;;;;;;;6.60;3.67;;;;;;;;;;7371775;19;20010;-69
2023/06/25 11:25:39;;;;;;;5.97;3.80;;;;;;;;;;7373243;19;20103;-69
2023/06/25 11:28:05;;;;;;;5.70;3.90;;;;;;;;;;7374911;19;20014;-69
2023/06/25 11:30:31;;;;;;;5.25;3.50;;;;;;;;;;7394071;19;20074;-70
2023/06/25 11:33:17;;;;;;;5.38;3.60;;;;;;;;;;7370524;19;20048;-70
2023/06/25 11:35:44;;;;;;;7.43;3.90;;;;;;;;;;7369117;19;20067;-70
2023/06/25 11:38:10;;;;;;;5.43;3.47;;;;;;;;;;7370194;19;20374;-70
2023/06/25 11:40:38;;;;;;;5.88;3.80;;;;;;;;;;7369776;19;20011;-69
2023/06/25 11:43:03;;;;;;;6.25;3.83;;;;;;;;;;7370639;19;20006;-68
2023/06/25 11:45:43;;;;;;;5.13;3.45;;;;;;;;;;7392691;19;20484;-68
2023/06/25 11:48:16;;;;;;;5.28;3.50;;;;;;;;;;7368222;19;20357;-69
2023/06/25 11:50:45;;;;;;;6.90;3.35;;;;;;;;;;7366693;19;20081;-69
2023/06/25 11:53:11;;;;;;;6.47;3.70;;;;;;;;;;7368249;19;20074;-69
2023/06/25 11:55:38;;;;;;;5.78;3.63;;;;;;;;;;7369102;19;20031;-69
2023/06/25 11:58:03;;;;;;;7.18;3.70;;;;;;;;;;7367089;19;20554;-69
2023/06/25 12:00:28;;;;;;;7.15;3.78;;;;;;;;;;7391404;19;20014;-70
2023/06/25 12:02:54;;;;;;;9.13;3.70;;;;;;;;;;7368125;19;20010;-70
2023/06/25 12:05:19;;;;;;;5.40;3.65;;;;;;;;;;7369825;19;20078;-70
2023/06/25 12:07:44;;;;;;;6.00;3.90;;;;;;;;;;7368150;19;20010;-70
2023/06/25 12:10:10;;;;;;;11.07;4.10;;;;;;;;;;7368282;19;20003;-70
2023/06/25 12:12:35;;;;;;;6.20;3.80;;;;;;;;;;7390212;19;19998;-70
2023/06/25 12:15:00;;;;;;;4.93;3.40;;;;;;;;;;7368737;19;20018;-70
2023/06/25 12:17:26;;;;;;;6.40;4.03;;;;;;;;;;7367579;19;20015;-70
2023/06/25 12:19:51;;;;;;;6.50;3.70;;;;;;;;;;7376403;19;20721;-70
2023/06/25 12:22:16;;;;;;;6.17;3.70;;;;;;;;;;7375471;19;20215;-70
2023/06/25 12:24:42;;;;;;;6.82;3.42;;;;;;;;;;7398772;19;20251;-70
2023/06/25 12:27:07;;;;;;;7.33;3.57;;;;;;;;;;7374025;19;20007;-70
2023/06/25 12:29:33;;;;;;;6.22;3.75;;;;;;;;;;7372423;19;20267;-69
2023/06/25 12:31:58;;;;;;;6.45;3.70;;;;;;;;;;7374946;19;20011;-70
2023/06/25 12:34:23;;;;;;;6.35;3.83;;;;;;;;;;7375996;19;20393;-70
2023/06/25 12:36:48;;;;;;;7.27;4.00;;;;;;;;;;7397181;19;20018;-70
2023/06/25 12:39:14;;;;;;;7.53;3.83;;;;;;;;;;7374134;19;20671;-69
2023/06/25 12:41:39;;;;;;;5.75;3.58;;;;;;;;;;7375832;19;20255;-70
2023/06/25 12:44:05;;;;;;;5.57;3.38;;;;;;;;;;7376117;19;20013;-70
2023/06/25 12:46:30;;;;;;;7.68;3.92;;;;;;;;;;7377130;19;20011;-70
2023/06/25 12:48:55;;;;;;;6.83;3.70;;;;;;;;;;7378992;19;20007;-70
2023/06/25 12:51:21;;;;;;;6.15;4.00;;;;;;;;;;7396636;19;20281;-70
2023/06/25 12:53:46;;;;;;;5.88;3.80;;;;;;;;;;7376983;19;20034;-70
2023/06/25 12:56:12;;;;;;;7.43;4.07;;;;;;;;;;7375766;19;20073;-70
2023/06/25 12:58:37;;;;;;;6.03;3.67;;;;;;;;;;7372594;19;20473;-70
2023/06/25 13:01:02;;;;;;;5.50;3.70;;;;;;;;;;7375965;19;20007;-70
2023/06/25 13:03:28;;;;;;;5.57;3.70;;;;;;;;;;7397012;19;20512;-71
2023/06/25 13:05:53;;;;;;;5.85;3.80;;;;;;;;;;7374667;19;20003;-70
2023/06/25 13:08:18;;;;;;;5.82;3.72;;;;;;;;;;7374609;19;20011;-70
2023/06/25 13:10:44;;;;;;;5.95;3.80;;;;;;;;;;7372303;19;20009;-70
2023/06/25 13:13:09;;;;;;;5.07;3.63;;;;;;;;;;7374128;19;19998;-70
2023/06/25 13:15:35;;;;;;;5.00;3.40;;;;;;;;;;7396183;19;20501;-69
2023/06/25 13:18:01;;;;;;;6.40;3.83;;;;;;;;;;7373077;19;20013;-69
2023/06/25 13:20:27;;;;;;;7.30;3.70;;;;;;;;;;7373968;19;20480;-70
2023/06/25 13:22:52;;;;;;;6.18;3.83;;;;;;;;;;7374759;19;20010;-70
2023/06/25 13:25:17;;;;;;;8.73;4.40;;;;;;;;;;7374699;19;20055;-69
2023/06/25 13:27:43;;;;;;;5.28;3.42;;;;;;;;;;7394545;19;20013;-70
2023/06/25 13:30:09;;;;;;;5.70;3.90;;;;;;;;;;7370306;19;19998;-69
2023/06/25 13:32:35;;;;;;;6.38;3.72;;;;;;;;;;7374096;19;20074;-69
2023/06/25 13:35:01;;;;;;;5.97;3.90;;;;;;;;;;7374081;19;19998;-70
2023/06/25 13:37:26;;;;;;;5.93;3.50;;;;;;;;;;7373322;19;20034;-70
2023/06/25 13:39:51;;;;;;;6.10;3.50;;;;;;;;;;7394926;19;20696;-68
2023/06/25 13:42:16;;;;;;;5.63;3.60;;;;;;;;;;7378131;19;20248;-70
2023/06/25 13:44:42;;;;;;;5.65;3.67;;;;;;;;;;7373092;19;20002;-70
2023/06/25 13:47:07;;;;;;;6.18;3.90;;;;;;;;;;7373087;19;20010;-70
2023/06/25 13:49:33;;;;;;;6.18;3.70;;;;;;;;;;7372281;19;20009;-69
2023/06/25 13:51:58;;;;;;;5.65;3.65;;;;;;;;;;7374000;19;20011;-69
2023/06/25 13:54:24;;;;;;;4.87;3.43;;;;;;;;;;7395925;19;20028;-70
2023/06/25 13:56:51;;;;;;;7.10;4.53;;;;;;;;;;7371947;19;20246;-69
2023/06/25 13:59:17;;;;;;;5.47;3.85;;;;;;;;;;7372593;19;20010;-70
2023/06/25 14:01:42;;;;;;;6.05;3.63;;;;;;;;;;7374020;19;20481;-70
2023/06/25 14:04:07;;;;;;;6.15;3.78;;;;;;;;;;7374466;19;19998;-69
2023/06/25 14:06:33;;;;;;;6.25;3.70;;;;;;;;;;7395206;19;20009;-70
2023/06/25 14:08:58;;;;;;;5.30;3.77;;;;;;;;;;7370950;19;20010;-70
2023/06/25 14:11:24;;;;;;;6.90;3.72;;;;;;;;;;7372123;19;20235;-69
2023/06/25 14:13:51;;;;;;;9.43;3.63;;;;;;;;;;7371793;19;20026;-69
2023/06/25 14:16:17;;;;;;;5.93;3.17;;;;;;;;;;7372252;19;20013;-69
2023/06/25 14:18:42;;;;;;;6.33;3.57;;;;;;;;;;7391464;19;20014;-70
2023/06/25 14:21:07;;;;;;;5.10;3.45;;;;;;;;;;7370335;19;20711;-69
2023/06/25 14:23:33;;;;;;;5.85;3.83;;;;;;;;;;7371415;19;20010;-69
2023/06/25 14:25:58;;;;;;;6.67;3.97;;;;;;;;;;7372823;19;20030;-69
2023/06/25 14:28:23;;;;;;;5.20;3.53;;;;;;;;;;7371075;19;20220;-69
2023/06/25 14:30:49;;;;;;;6.95;4.20;;;;;;;;;;7392594;19;20157;-70
2023/06/25 14:33:14;;;;;;;5.72;3.78;;;;;;;;;;7371822;19;20010;-70